createdAt,value
2023-05-16T00:00:22.616Z,19.07
2023-05-16T00:01:21.621Z,19.06
2023-05-16T00:02:22.797Z,19.06
2023-05-16T00:03:22.735Z,19.07
2023-05-16T00:04:21.751Z,19.06
2023-05-16T00:05:22.717Z,19.06
2023-05-16T00:06:21.781Z,19.06
2023-05-16T00:07:21.785Z,19.06
2023-05-16T00:08:22.818Z,19.07
2023-05-16T00:09:21.841Z,19.06
2023-05-16T00:10:21.879Z,19.06
2023-05-16T00:11:22.894Z,19.06
2023-05-16T00:12:21.946Z,19.06
2023-05-16T00:13:22.956Z,19.06
2023-05-16T00:14:23.003Z,19.06
2023-05-16T00:15:22.028Z,19.06
2023-05-16T00:16:23.072Z,19.06
2023-05-16T00:17:23.109Z,19.06
2023-05-16T00:18:22.117Z,19.05
2023-05-16T00:19:22.327Z,19.05
2023-05-16T00:20:23.205Z,19.05
2023-05-16T00:21:23.616Z,19.06
2023-05-16T00:22:23.192Z,19.05
2023-05-16T00:23:22.195Z,19.05
2023-05-16T00:24:22.239Z,19.06
2023-05-16T00:25:23.269Z,19.05
2023-05-16T00:26:22.311Z,19.04
2023-05-16T00:27:22.316Z,19.05
2023-05-16T00:28:23.357Z,19.05
2023-05-16T00:29:22.374Z,19.05
2023-05-16T00:30:23.466Z,19.04
2023-05-16T00:31:23.450Z,19.04
2023-05-16T00:32:22.540Z,19.04
2023-05-16T00:33:23.456Z,19.04
2023-05-16T00:34:23.533Z,19.04
2023-05-16T00:35:23.535Z,19.04
2023-05-16T00:36:24.023Z,19.04
2023-05-16T00:37:23.591Z,19.04
2023-05-16T00:38:22.630Z,19.04
2023-05-16T00:39:23.610Z,19.04
2023-05-16T00:40:22.627Z,19.04
2023-05-16T00:41:23.625Z,19.04
2023-05-16T00:42:22.665Z,19.04
2023-05-16T00:43:22.654Z,19.04
2023-05-16T00:44:23.705Z,19.03
2023-05-16T00:45:23.738Z,19.04
2023-05-16T00:46:23.897Z,19.03
2023-05-16T00:47:23.824Z,19.04
2023-05-16T00:48:23.854Z,19.03
2023-05-16T00:49:22.850Z,19.04
2023-05-16T00:50:22.879Z,19.04
2023-05-16T00:51:23.936Z,19.03
2023-05-16T00:52:23.984Z,19.04
2023-05-16T00:53:23.996Z,19.03
2023-05-16T00:54:24.050Z,19.03
2023-05-16T00:55:24.042Z,19.03
2023-05-16T00:56:23.083Z,19.03
2023-05-16T00:57:23.133Z,19.03
2023-05-16T00:58:23.131Z,19.03
2023-05-16T00:59:23.168Z,19.03
2023-05-16T01:00:24.478Z,19.03
2023-05-16T01:01:23.275Z,19.02
2023-05-16T01:02:24.344Z,19.02
2023-05-16T01:03:23.450Z,19.01
2023-05-16T01:04:24.321Z,19.02
2023-05-16T01:05:24.493Z,19.02
2023-05-16T01:06:23.389Z,19.02
2023-05-16T01:07:24.410Z,19.02
2023-05-16T01:08:23.480Z,19.03
2023-05-16T01:09:24.493Z,19.01
2023-05-16T01:10:24.552Z,19.02
2023-05-16T01:11:23.572Z,19.02
2023-05-16T01:12:24.611Z,19.01
2023-05-16T01:13:24.618Z,19.01
2023-05-16T01:14:24.660Z,19.01
2023-05-16T01:15:24.822Z,19.01
2023-05-16T01:16:24.824Z,19.00
2023-05-16T01:17:24.891Z,19.01
2023-05-16T01:18:24.866Z,19.00
2023-05-16T01:19:24.960Z,19.01
2023-05-16T01:20:23.887Z,19.01
2023-05-16T01:21:23.909Z,19.01
2023-05-16T01:22:23.921Z,19.01
2023-05-16T01:23:24.948Z,19.00
2023-05-16T01:24:24.013Z,19.00
2023-05-16T01:25:25.347Z,19.00
2023-05-16T01:26:25.096Z,19.00
2023-05-16T01:27:24.097Z,19.00
2023-05-16T01:28:25.141Z,19.00
2023-05-16T01:29:24.175Z,19.00
2023-05-16T01:30:25.249Z,19.00
2023-05-16T01:31:25.345Z,18.99
2023-05-16T01:32:24.289Z,18.99
2023-05-16T01:33:24.320Z,19.00
2023-05-16T01:34:25.365Z,18.99
2023-05-16T01:35:25.744Z,19.00
2023-05-16T01:36:25.437Z,19.00
2023-05-16T01:37:24.482Z,18.99
2023-05-16T01:38:25.510Z,19.00
2023-05-16T01:39:25.555Z,18.99
2023-05-16T01:40:25.590Z,18.99
2023-05-16T01:41:24.610Z,18.99
2023-05-16T01:42:24.642Z,18.98
2023-05-16T01:43:24.634Z,18.99
2023-05-16T01:44:25.629Z,19.00
2023-05-16T01:45:24.813Z,18.99
2023-05-16T01:46:25.719Z,18.99
2023-05-16T01:47:25.756Z,18.99
2023-05-16T01:48:25.778Z,18.99
2023-05-16T01:49:25.839Z,18.99
2023-05-16T01:50:24.869Z,18.98
2023-05-16T01:51:24.911Z,18.99
2023-05-16T01:52:25.938Z,18.98
2023-05-16T01:53:24.970Z,18.98
2023-05-16T01:54:24.985Z,18.99
2023-05-16T01:55:25.174Z,18.99
2023-05-16T01:56:25.021Z,18.99
2023-05-16T01:57:24.997Z,18.99
2023-05-16T01:58:25.050Z,18.99
2023-05-16T01:59:26.076Z,18.98
2023-05-16T02:00:26.094Z,18.98
2023-05-16T02:01:26.169Z,18.97
2023-05-16T02:02:26.180Z,18.98
2023-05-16T02:03:26.213Z,18.98
2023-05-16T02:04:26.160Z,18.98
2023-05-16T02:05:25.526Z,18.98
2023-05-16T02:06:25.214Z,18.98
2023-05-16T02:07:26.261Z,18.98
2023-05-16T02:08:26.340Z,18.98
2023-05-16T02:09:26.342Z,18.97
2023-05-16T02:10:26.363Z,18.98
2023-05-16T02:11:26.399Z,18.98
2023-05-16T02:12:25.437Z,18.98
2023-05-16T02:13:26.482Z,18.97
2023-05-16T02:14:26.520Z,18.98
2023-05-16T02:15:25.794Z,18.97
2023-05-16T02:16:26.661Z,18.97
2023-05-16T02:17:25.683Z,18.97
2023-05-16T02:18:25.667Z,18.98
2023-05-16T02:19:26.723Z,18.98
2023-05-16T02:20:25.749Z,18.98
2023-05-16T02:21:26.789Z,18.97
2023-05-16T02:22:26.337Z,18.97
2023-05-16T02:23:26.855Z,18.97
2023-05-16T02:24:26.894Z,18.97
2023-05-16T02:25:27.253Z,18.97
2023-05-16T02:26:26.973Z,18.96
2023-05-16T02:27:25.998Z,18.97
2023-05-16T02:28:27.020Z,18.97
2023-05-16T02:29:26.078Z,18.97
2023-05-16T02:30:27.118Z,18.97
2023-05-16T02:31:26.218Z,18.96
2023-05-16T02:32:26.278Z,18.96
2023-05-16T02:33:27.214Z,18.96
2023-05-16T02:34:27.243Z,18.96
2023-05-16T02:35:27.525Z,18.96
2023-05-16T02:36:26.342Z,18.96
2023-05-16T02:37:27.362Z,18.96
2023-05-16T02:38:26.414Z,18.97
2023-05-16T02:39:27.424Z,18.96
2023-05-16T02:40:26.482Z,18.96
2023-05-16T02:41:26.506Z,18.96
2023-05-16T02:42:27.557Z,18.95
2023-05-16T02:43:27.603Z,18.96
2023-05-16T02:44:26.611Z,18.96
2023-05-16T02:45:26.966Z,18.97
2023-05-16T02:46:27.905Z,18.96
2023-05-16T02:47:26.770Z,18.96
2023-05-16T02:48:27.780Z,18.96
2023-05-16T02:49:26.792Z,18.95
2023-05-16T02:50:26.833Z,18.95
2023-05-16T02:51:27.875Z,18.95
2023-05-16T02:52:27.897Z,18.96
2023-05-16T02:53:27.956Z,18.95
2023-05-16T02:54:26.965Z,18.96
2023-05-16T02:55:26.966Z,18.96
2023-05-16T02:56:27.968Z,18.96
2023-05-16T02:57:27.004Z,18.95
2023-05-16T02:58:27.026Z,18.95
2023-05-16T02:59:28.043Z,18.95
2023-05-16T03:00:28.084Z,18.95
2023-05-16T03:01:27.131Z,18.95
2023-05-16T03:02:27.229Z,18.95
2023-05-16T03:03:28.275Z,18.94
2023-05-16T03:04:28.225Z,18.94
2023-05-16T03:05:28.624Z,18.95
2023-05-16T03:06:27.337Z,18.95
2023-05-16T03:07:28.344Z,18.94
2023-05-16T03:08:27.383Z,18.94
2023-05-16T03:09:28.387Z,18.94
2023-05-16T03:10:27.427Z,18.94
2023-05-16T03:11:27.490Z,18.94
2023-05-16T03:12:28.524Z,18.94
2023-05-16T03:13:28.555Z,18.94
2023-05-16T03:14:27.602Z,18.94
2023-05-16T03:15:28.871Z,18.93
2023-05-16T03:16:27.691Z,18.94
2023-05-16T03:17:28.772Z,18.94
2023-05-16T03:18:28.809Z,18.94
2023-05-16T03:19:27.855Z,18.94
2023-05-16T03:20:27.846Z,18.94
2023-05-16T03:21:28.882Z,18.94
2023-05-16T03:22:27.946Z,18.94
2023-05-16T03:23:27.987Z,18.94
2023-05-16T03:24:29.072Z,18.93
2023-05-16T03:25:29.121Z,18.93
2023-05-16T03:26:29.039Z,18.93
2023-05-16T03:27:28.070Z,18.94
2023-05-16T03:28:28.086Z,18.93
2023-05-16T03:29:29.133Z,18.93
2023-05-16T03:30:29.185Z,18.93
2023-05-16T03:31:28.270Z,18.94
2023-05-16T03:32:29.294Z,18.93
2023-05-16T03:33:28.341Z,18.93
2023-05-16T03:34:28.358Z,18.93
2023-05-16T03:35:28.671Z,18.93
2023-05-16T03:36:29.522Z,18.93
2023-05-16T03:37:29.482Z,18.92
2023-05-16T03:38:29.514Z,18.93
2023-05-16T03:39:29.542Z,18.93
2023-05-16T03:40:29.585Z,18.92
2023-05-16T03:41:28.612Z,18.93
2023-05-16T03:42:28.671Z,18.93
2023-05-16T03:43:29.692Z,18.93
2023-05-16T03:44:28.716Z,18.93
2023-05-16T03:45:30.035Z,18.93
2023-05-16T03:46:29.881Z,18.93
2023-05-16T03:47:29.867Z,18.93
2023-05-16T03:48:29.858Z,18.93
2023-05-16T03:49:29.948Z,18.93
2023-05-16T03:50:29.950Z,18.92
2023-05-16T03:51:28.983Z,18.93
2023-05-16T03:52:30.039Z,18.93
2023-05-16T03:53:29.101Z,18.92
2023-05-16T03:54:30.128Z,18.92
2023-05-16T03:55:29.316Z,18.92
2023-05-16T03:56:29.205Z,18.92
2023-05-16T03:57:30.257Z,18.92
2023-05-16T03:58:29.290Z,18.92
2023-05-16T03:59:29.337Z,18.93
2023-05-16T04:00:30.399Z,18.92
2023-05-16T04:01:30.430Z,18.92
2023-05-16T04:02:30.685Z,18.92
2023-05-16T04:03:30.561Z,18.92
2023-05-16T04:04:30.525Z,18.92
2023-05-16T04:05:29.851Z,18.92
2023-05-16T04:06:29.549Z,18.92
2023-05-16T04:07:30.602Z,18.92
2023-05-16T04:08:30.633Z,18.92
2023-05-16T04:09:29.648Z,18.93
2023-05-16T04:10:30.698Z,18.92
2023-05-16T04:11:30.712Z,18.93
2023-05-16T04:12:30.754Z,18.93
2023-05-16T04:13:30.798Z,18.93
2023-05-16T04:14:30.795Z,18.92
2023-05-16T04:15:30.834Z,18.92
2023-05-16T04:16:29.916Z,18.92
2023-05-16T04:17:29.928Z,18.92
2023-05-16T04:18:29.961Z,18.92
2023-05-16T04:19:30.942Z,18.93
2023-05-16T04:20:32.787Z,18.92
2023-05-16T04:21:30.023Z,18.92
2023-05-16T04:22:29.980Z,18.92
2023-05-16T04:23:29.989Z,18.93
2023-05-16T04:24:29.961Z,18.92
2023-05-16T04:25:30.135Z,18.92
2023-05-16T04:26:29.964Z,18.92
2023-05-16T04:27:29.960Z,18.92
2023-05-16T04:28:30.945Z,18.92
2023-05-16T04:29:30.932Z,18.91
2023-05-16T04:30:29.930Z,18.91
2023-05-16T04:31:30.949Z,18.92
2023-05-16T04:32:30.950Z,18.92
2023-05-16T04:33:29.890Z,18.92
2023-05-16T04:34:30.894Z,18.92
2023-05-16T04:35:30.901Z,18.92
2023-05-16T04:36:30.889Z,18.92
2023-05-16T04:37:30.900Z,18.92
2023-05-16T04:38:29.860Z,18.92
2023-05-16T04:39:29.839Z,18.92
2023-05-16T04:40:30.839Z,18.92
2023-05-16T04:41:29.859Z,18.93
2023-05-16T04:42:29.861Z,18.92
2023-05-16T04:43:29.817Z,18.92
2023-05-16T04:44:30.824Z,18.93
2023-05-16T04:45:30.810Z,18.92
2023-05-16T04:46:30.862Z,18.92
2023-05-16T04:47:30.886Z,18.92
2023-05-16T04:48:29.802Z,18.92
2023-05-16T04:49:29.784Z,18.92
2023-05-16T04:50:30.781Z,18.92
2023-05-16T04:51:30.760Z,18.92
2023-05-16T04:52:30.748Z,18.92
2023-05-16T04:53:30.767Z,18.92
2023-05-16T04:54:30.771Z,18.92
2023-05-16T04:55:30.964Z,18.92
2023-05-16T04:56:29.716Z,18.92
2023-05-16T04:57:29.722Z,18.92
2023-05-16T04:58:30.703Z,18.92
2023-05-16T04:59:30.717Z,18.93
2023-05-16T05:00:30.720Z,18.91
2023-05-16T05:01:30.810Z,18.92
2023-05-16T05:02:30.843Z,18.92
2023-05-16T05:03:30.838Z,18.92
2023-05-16T05:04:29.941Z,18.92
2023-05-16T05:05:30.239Z,18.92
2023-05-16T05:06:30.993Z,18.92
2023-05-16T05:07:31.070Z,18.92
2023-05-16T05:08:31.072Z,18.92
2023-05-16T05:09:30.116Z,18.92
2023-05-16T05:10:31.136Z,18.92
2023-05-16T05:11:31.175Z,18.93
2023-05-16T05:12:30.213Z,18.93
2023-05-16T05:13:31.275Z,18.92
2023-05-16T05:14:31.311Z,18.93
2023-05-16T05:15:31.337Z,18.93
2023-05-16T05:16:31.384Z,18.93
2023-05-16T05:17:31.537Z,18.93
2023-05-16T05:18:31.568Z,18.92
2023-05-16T05:19:30.615Z,18.93
2023-05-16T05:20:30.586Z,18.93
2023-05-16T05:21:31.614Z,18.94
2023-05-16T05:22:31.663Z,18.94
2023-05-16T05:23:31.686Z,18.94
2023-05-16T05:24:30.753Z,18.94
2023-05-16T05:25:30.802Z,18.94
2023-05-16T05:26:30.831Z,18.93
2023-05-16T05:27:30.833Z,18.94
2023-05-16T05:28:31.856Z,18.93
2023-05-16T05:29:31.870Z,18.94
2023-05-16T05:30:30.908Z,18.94
2023-05-16T05:31:31.017Z,18.94
2023-05-16T05:32:32.072Z,18.94
2023-05-16T05:33:32.043Z,18.94
2023-05-16T05:34:32.087Z,18.94
2023-05-16T05:35:32.157Z,18.95
2023-05-16T05:36:32.186Z,18.94
2023-05-16T05:37:32.246Z,18.94
2023-05-16T05:38:31.300Z,18.94
2023-05-16T05:39:32.317Z,18.94
2023-05-16T05:40:32.366Z,18.95
2023-05-16T05:41:31.465Z,18.95
2023-05-16T05:42:32.494Z,18.95
2023-05-16T05:43:32.509Z,18.95
2023-05-16T05:44:32.534Z,18.95
2023-05-16T05:45:31.579Z,18.96
2023-05-16T05:46:31.701Z,18.96
2023-05-16T05:47:31.684Z,18.96
2023-05-16T05:48:31.689Z,18.96
2023-05-16T05:49:32.735Z,18.95
2023-05-16T05:50:31.802Z,18.96
2023-05-16T05:51:32.836Z,18.96
2023-05-16T05:52:31.912Z,18.96
2023-05-16T05:53:31.901Z,18.97
2023-05-16T05:54:31.976Z,18.97
2023-05-16T05:55:33.054Z,18.97
2023-05-16T05:56:33.088Z,18.97
2023-05-16T05:57:32.113Z,18.97
2023-05-16T05:58:33.108Z,18.97
2023-05-16T05:59:33.143Z,18.97
2023-05-16T06:00:33.208Z,18.97
2023-05-16T06:01:33.299Z,18.97
2023-05-16T06:02:33.521Z,18.98
2023-05-16T06:03:32.401Z,18.97
2023-05-16T06:04:32.387Z,18.97
2023-05-16T06:05:33.465Z,18.98
2023-05-16T06:06:33.469Z,18.98
2023-05-16T06:07:32.555Z,18.97
2023-05-16T06:08:33.539Z,18.99
2023-05-16T06:09:32.586Z,18.98
2023-05-16T06:10:32.618Z,18.98
2023-05-16T06:11:33.647Z,18.98
2023-05-16T06:12:32.685Z,18.98
2023-05-16T06:13:33.741Z,18.98
2023-05-16T06:14:32.751Z,18.98
2023-05-16T06:15:33.790Z,18.98
2023-05-16T06:16:33.832Z,18.98
2023-05-16T06:17:32.880Z,18.99
2023-05-16T06:18:33.901Z,18.98
2023-05-16T06:19:33.881Z,18.99
2023-05-16T06:20:32.890Z,18.99
2023-05-16T06:21:33.923Z,18.99
2023-05-16T06:22:33.981Z,18.99
2023-05-16T06:23:34.003Z,18.99
2023-05-16T06:24:34.078Z,18.99
2023-05-16T06:25:34.119Z,18.99
2023-05-16T06:26:34.157Z,18.99
2023-05-16T06:27:34.190Z,18.99
2023-05-16T06:28:34.225Z,18.99
2023-05-16T06:29:33.248Z,18.99
2023-05-16T06:30:33.276Z,18.99
2023-05-16T06:31:34.370Z,18.99
2023-05-16T06:32:34.379Z,18.99
2023-05-16T06:33:33.373Z,18.99
2023-05-16T06:34:33.418Z,18.99
2023-05-16T06:35:33.466Z,18.99
2023-05-16T06:36:33.525Z,18.99
2023-05-16T06:37:34.554Z,18.99
2023-05-16T06:38:34.606Z,19.00
2023-05-16T06:39:34.675Z,18.99
2023-05-16T06:40:34.705Z,18.99
2023-05-16T06:41:34.733Z,18.99
2023-05-16T06:42:34.812Z,18.99
2023-05-16T06:43:33.848Z,18.99
2023-05-16T06:44:33.874Z,18.99
2023-05-16T06:45:34.989Z,18.99
2023-05-16T06:46:34.962Z,18.99
2023-05-16T06:47:34.096Z,19.00
2023-05-16T06:48:35.039Z,19.00
2023-05-16T06:49:35.061Z,18.99
2023-05-16T06:50:35.124Z,18.99
2023-05-16T06:51:35.165Z,19.00
2023-05-16T06:52:35.451Z,19.00
2023-05-16T06:53:34.250Z,19.00
2023-05-16T06:54:35.296Z,18.99
2023-05-16T06:55:34.328Z,19.00
2023-05-16T06:56:35.373Z,19.00
2023-05-16T06:57:35.449Z,19.00
2023-05-16T06:58:34.472Z,19.00
2023-05-16T06:59:34.541Z,19.03
2023-05-16T07:00:34.516Z,19.08
2023-05-16T07:01:35.689Z,19.12
2023-05-16T07:02:34.613Z,19.14
2023-05-16T07:03:35.651Z,19.13
2023-05-16T07:04:35.620Z,19.12
2023-05-16T07:05:34.622Z,19.12
2023-05-16T07:06:34.605Z,19.12
2023-05-16T07:07:35.650Z,19.12
2023-05-16T07:08:35.685Z,19.11
2023-05-16T07:09:34.767Z,19.12
2023-05-16T07:10:35.798Z,19.11
2023-05-16T07:11:35.865Z,19.11
2023-05-16T07:12:35.952Z,19.11
2023-05-16T07:13:36.158Z,19.11
2023-05-16T07:14:36.030Z,19.11
2023-05-16T07:15:36.067Z,19.12
2023-05-16T07:16:36.277Z,19.12
2023-05-16T07:17:35.204Z,19.12
2023-05-16T07:18:35.257Z,19.13
2023-05-16T07:19:36.245Z,19.14
2023-05-16T07:20:36.304Z,19.15
2023-05-16T07:21:36.334Z,19.14
2023-05-16T07:22:36.468Z,19.14
2023-05-16T07:23:36.440Z,19.16
2023-05-16T07:24:36.523Z,19.17
2023-05-16T07:25:36.496Z,19.17
2023-05-16T07:26:36.530Z,19.18
2023-05-16T07:27:36.607Z,19.18
2023-05-16T07:28:35.751Z,19.18
2023-05-16T07:29:36.658Z,19.19
2023-05-16T07:30:36.657Z,19.20
2023-05-16T07:31:36.722Z,19.20
2023-05-16T07:32:35.744Z,19.21
2023-05-16T07:33:36.768Z,19.21
2023-05-16T07:34:36.690Z,19.22
2023-05-16T07:35:36.713Z,19.22
2023-05-16T07:36:36.955Z,19.23
2023-05-16T07:37:35.749Z,19.24
2023-05-16T07:38:36.737Z,19.25
2023-05-16T07:39:36.766Z,19.26
2023-05-16T07:40:35.904Z,19.25
2023-05-16T07:41:36.903Z,19.26
2023-05-16T07:42:35.854Z,19.26
2023-05-16T07:43:35.879Z,19.27
2023-05-16T07:44:36.910Z,19.27
2023-05-16T07:45:36.976Z,19.27
2023-05-16T07:46:37.097Z,19.27
2023-05-16T07:47:37.063Z,19.26
2023-05-16T07:48:37.477Z,19.27
2023-05-16T07:49:37.089Z,19.27
2023-05-16T07:50:36.075Z,19.28
2023-05-16T07:51:36.120Z,19.29
2023-05-16T07:52:37.080Z,19.29
2023-05-16T07:53:36.450Z,19.29
2023-05-16T07:54:36.108Z,19.34
2023-05-16T07:55:37.158Z,19.43
2023-05-16T07:56:37.275Z,19.50
2023-05-16T07:57:37.266Z,19.53
2023-05-16T07:58:38.224Z,19.56
2023-05-16T07:59:36.505Z,19.58
2023-05-16T08:00:36.417Z,19.60
2023-05-16T08:01:36.411Z,19.60
2023-05-16T08:02:37.509Z,19.60
2023-05-16T08:03:37.723Z,19.62
2023-05-16T08:04:36.407Z,19.64
2023-05-16T08:05:37.511Z,19.65
2023-05-16T08:06:37.422Z,19.67
2023-05-16T08:07:37.409Z,19.69
2023-05-16T08:08:37.477Z,19.71
2023-05-16T08:09:36.518Z,19.72
2023-05-16T08:10:36.555Z,19.75
2023-05-16T08:11:36.628Z,19.77
2023-05-16T08:12:36.655Z,19.77
2023-05-16T08:13:37.673Z,19.79
2023-05-16T08:14:37.719Z,19.80
2023-05-16T08:15:37.802Z,19.82
2023-05-16T08:16:36.959Z,19.82
2023-05-16T08:17:36.967Z,19.84
2023-05-16T08:18:38.003Z,19.86
2023-05-16T08:19:36.998Z,19.89
2023-05-16T08:20:38.015Z,19.91
2023-05-16T08:21:38.162Z,19.93
2023-05-16T08:22:37.094Z,19.95
2023-05-16T08:23:38.139Z,19.95
2023-05-16T08:24:38.189Z,19.96
2023-05-16T08:25:38.199Z,19.97
2023-05-16T08:26:37.255Z,19.97
2023-05-16T08:27:38.333Z,19.98
2023-05-16T08:28:38.377Z,19.99
2023-05-16T08:29:38.474Z,20.01
2023-05-16T08:30:41.088Z,20.01
2023-05-16T08:31:38.485Z,20.02
2023-05-16T08:32:38.435Z,20.04
2023-05-16T08:33:38.475Z,20.04
2023-05-16T08:34:38.425Z,20.07
2023-05-16T08:35:37.426Z,20.07
2023-05-16T08:36:37.409Z,20.08
2023-05-16T08:37:38.449Z,20.08
2023-05-16T08:38:38.440Z,20.09
2023-05-16T08:39:38.418Z,20.10
2023-05-16T08:40:38.390Z,20.10
2023-05-16T08:41:38.376Z,20.09
2023-05-16T08:42:37.359Z,20.07
2023-05-16T08:43:37.495Z,20.04
2023-05-16T08:44:37.328Z,20.03
2023-05-16T08:45:38.396Z,20.02
2023-05-16T08:46:38.480Z,20.00
2023-05-16T08:47:38.522Z,19.98
2023-05-16T08:48:38.448Z,19.96
2023-05-16T08:49:37.495Z,19.95
2023-05-16T08:50:37.561Z,19.92
2023-05-16T08:51:38.580Z,19.91
2023-05-16T08:52:38.686Z,19.90
2023-05-16T08:53:38.720Z,19.88
2023-05-16T08:54:38.714Z,19.87
2023-05-16T08:55:38.811Z,19.85
2023-05-16T08:56:38.831Z,19.84
2023-05-16T08:57:37.875Z,19.83
2023-05-16T08:58:38.024Z,19.82
2023-05-16T08:59:37.979Z,19.83
2023-05-16T09:00:38.037Z,19.87
2023-05-16T09:01:39.125Z,19.88
2023-05-16T09:02:39.159Z,19.89
2023-05-16T09:03:39.160Z,19.88
2023-05-16T09:04:38.149Z,19.87
2023-05-16T09:05:38.167Z,19.84
2023-05-16T09:06:39.137Z,19.84
2023-05-16T09:07:38.174Z,19.83
2023-05-16T09:08:38.158Z,19.83
2023-05-16T09:09:39.437Z,19.83
2023-05-16T09:10:39.140Z,19.83
2023-05-16T09:11:39.158Z,19.83
2023-05-16T09:12:39.154Z,19.83
2023-05-16T09:13:39.193Z,19.83
2023-05-16T09:14:39.180Z,19.83
2023-05-16T09:15:39.325Z,19.85
2023-05-16T09:16:39.316Z,19.84
2023-05-16T09:17:39.938Z,19.84
2023-05-16T09:18:39.337Z,19.85
2023-05-16T09:19:39.371Z,19.85
2023-05-16T09:20:38.254Z,19.85
2023-05-16T09:21:39.249Z,19.85
2023-05-16T09:22:39.259Z,19.86
2023-05-16T09:23:38.240Z,19.85
2023-05-16T09:24:39.226Z,19.85
2023-05-16T09:25:39.258Z,19.86
2023-05-16T09:26:38.201Z,19.85
2023-05-16T09:27:38.197Z,19.86
2023-05-16T09:28:38.204Z,19.86
2023-05-16T09:29:38.202Z,19.86
2023-05-16T09:30:39.174Z,19.86
2023-05-16T09:31:39.215Z,19.86
2023-05-16T09:32:38.222Z,19.85
2023-05-16T09:33:38.150Z,19.85
2023-05-16T09:34:39.153Z,19.85
2023-05-16T09:35:45.389Z,19.85
2023-05-16T09:36:40.169Z,19.85
2023-05-16T09:37:39.179Z,19.84
2023-05-16T09:38:39.117Z,19.84
2023-05-16T09:39:38.098Z,19.83
2023-05-16T09:40:39.101Z,19.83
2023-05-16T09:41:38.151Z,19.83
2023-05-16T09:42:38.105Z,19.82
2023-05-16T09:43:41.616Z,19.82
2023-05-16T09:44:38.091Z,19.81
2023-05-16T09:45:38.135Z,19.82
2023-05-16T09:46:39.099Z,19.82
2023-05-16T09:47:38.103Z,19.81
2023-05-16T09:48:39.513Z,19.78
2023-05-16T09:49:39.053Z,19.78
2023-05-16T09:50:39.043Z,19.77
2023-05-16T09:51:38.046Z,19.77
2023-05-16T09:52:39.051Z,19.77
2023-05-16T09:53:39.512Z,19.77
2023-05-16T09:54:39.011Z,19.75
2023-05-16T09:55:42.043Z,19.75
2023-05-16T09:56:39.001Z,19.73
2023-05-16T09:57:39.133Z,19.73
2023-05-16T09:58:38.997Z,19.71
2023-05-16T09:59:38.967Z,19.70
2023-05-16T10:00:38.994Z,19.70
2023-05-16T10:01:39.022Z,19.69
2023-05-16T10:02:39.013Z,19.68
2023-05-16T10:03:38.186Z,19.67
2023-05-16T10:04:38.941Z,19.67
2023-05-16T10:05:38.932Z,19.66
2023-05-16T10:06:37.953Z,19.65
2023-05-16T10:07:37.945Z,19.64
2023-05-16T10:08:38.925Z,19.64
2023-05-16T10:09:38.906Z,19.64
2023-05-16T10:10:38.890Z,19.64
2023-05-16T10:11:37.893Z,19.63
2023-05-16T10:12:38.930Z,19.63
2023-05-16T10:13:37.952Z,19.62
2023-05-16T10:14:37.893Z,19.62
2023-05-16T10:15:37.877Z,19.61
2023-05-16T10:16:38.908Z,19.62
2023-05-16T10:17:37.906Z,19.62
2023-05-16T10:18:38.947Z,19.61
2023-05-16T10:19:38.842Z,19.61
2023-05-16T10:20:37.862Z,19.60
2023-05-16T10:21:37.838Z,19.60
2023-05-16T10:22:38.821Z,19.59
2023-05-16T10:23:37.800Z,19.59
2023-05-16T10:24:38.787Z,19.58
2023-05-16T10:25:38.787Z,19.58
2023-05-16T10:26:38.835Z,19.58
2023-05-16T10:27:37.788Z,19.58
2023-05-16T10:28:37.775Z,19.57
2023-05-16T10:29:52.958Z,19.57
2023-05-16T10:30:38.760Z,19.56
2023-05-16T10:31:37.789Z,19.56
2023-05-16T10:32:40.029Z,19.56
2023-05-16T10:33:38.841Z,19.55
2023-05-16T10:34:37.727Z,19.55
2023-05-16T10:35:38.714Z,19.55
2023-05-16T10:36:38.724Z,19.54
2023-05-16T10:37:38.697Z,19.54
2023-05-16T10:38:38.708Z,19.53
2023-05-16T10:39:37.744Z,19.53
2023-05-16T10:40:37.678Z,19.53
2023-05-16T10:41:37.668Z,19.52
2023-05-16T10:42:38.687Z,19.52
2023-05-16T10:43:38.670Z,19.52
2023-05-16T10:44:38.706Z,19.51
2023-05-16T10:45:38.735Z,19.52
2023-05-16T10:46:37.767Z,19.51
2023-05-16T10:47:37.677Z,19.51
2023-05-16T10:48:37.632Z,19.51
2023-05-16T10:49:39.025Z,19.58
2023-05-16T10:50:38.620Z,19.63
2023-05-16T10:51:37.593Z,19.64
2023-05-16T10:52:38.577Z,19.66
2023-05-16T10:53:37.597Z,19.69
2023-05-16T10:54:37.580Z,19.74
2023-05-16T10:55:38.585Z,19.81
2023-05-16T10:56:38.610Z,19.86
2023-05-16T10:57:37.566Z,19.92
2023-05-16T10:58:38.586Z,19.97
2023-05-16T10:59:37.533Z,19.98
2023-05-16T11:00:38.531Z,20.00
2023-05-16T11:01:37.618Z,20.03
2023-05-16T11:02:37.606Z,20.06
2023-05-16T11:03:38.602Z,20.08
2023-05-16T11:04:37.536Z,20.10
2023-05-16T11:05:38.577Z,20.14
2023-05-16T11:06:38.625Z,20.18
2023-05-16T11:07:37.674Z,20.23
2023-05-16T11:08:38.670Z,20.23
2023-05-16T11:09:38.718Z,20.23
2023-05-16T11:10:38.758Z,20.26
2023-05-16T11:11:37.759Z,20.28
2023-05-16T11:12:38.826Z,20.28
2023-05-16T11:13:38.836Z,20.34
2023-05-16T11:14:38.877Z,20.33
2023-05-16T11:15:38.111Z,20.34
2023-05-16T11:16:37.980Z,20.35
2023-05-16T11:17:41.025Z,20.36
2023-05-16T11:18:39.073Z,20.39
2023-05-16T11:19:39.003Z,20.39
2023-05-16T11:20:37.983Z,20.41
2023-05-16T11:21:37.992Z,20.42
2023-05-16T11:22:38.968Z,20.42
2023-05-16T11:23:38.962Z,20.45
2023-05-16T11:24:39.020Z,20.46
2023-05-16T11:25:38.004Z,20.46
2023-05-16T11:26:37.939Z,20.49
2023-05-16T11:27:37.927Z,20.48
2023-05-16T11:28:37.926Z,20.49
2023-05-16T11:29:37.927Z,20.48
2023-05-16T11:30:38.912Z,20.46
2023-05-16T11:31:38.933Z,20.47
2023-05-16T11:32:38.952Z,20.47
2023-05-16T11:33:38.962Z,20.50
2023-05-16T11:34:38.895Z,20.53
2023-05-16T11:35:39.060Z,20.54
2023-05-16T11:36:38.887Z,20.54
2023-05-16T11:37:38.882Z,20.50
2023-05-16T11:38:37.863Z,20.46
2023-05-16T11:39:38.113Z,20.40
2023-05-16T11:40:38.855Z,20.36
2023-05-16T11:41:38.832Z,20.32
2023-05-16T11:42:38.846Z,20.28
2023-05-16T11:43:38.829Z,20.25
2023-05-16T11:44:37.847Z,20.22
2023-05-16T11:45:38.822Z,20.19
2023-05-16T11:46:38.825Z,20.16
2023-05-16T11:47:39.031Z,20.14
2023-05-16T11:48:37.810Z,20.11
2023-05-16T11:49:37.888Z,20.09
2023-05-16T11:50:38.789Z,20.07
2023-05-16T11:51:41.765Z,20.06
2023-05-16T11:52:37.764Z,20.04
2023-05-16T11:53:37.769Z,20.02
2023-05-16T11:54:37.769Z,20.00
2023-05-16T11:55:42.428Z,19.99
2023-05-16T11:56:38.751Z,19.98
2023-05-16T11:57:38.743Z,19.97
2023-05-16T11:58:37.734Z,19.95
2023-05-16T11:59:38.727Z,19.94
2023-05-16T12:00:38.717Z,19.93
2023-05-16T12:01:38.723Z,19.92
2023-05-16T12:02:38.795Z,19.91
2023-05-16T12:03:38.865Z,19.91
2023-05-16T12:04:38.881Z,19.90
2023-05-16T12:05:37.834Z,19.89
2023-05-16T12:06:37.682Z,19.88
2023-05-16T12:07:38.690Z,19.88
2023-05-16T12:08:37.675Z,19.87
2023-05-16T12:09:37.665Z,19.86
2023-05-16T12:10:38.672Z,19.85
2023-05-16T12:11:38.665Z,19.84
2023-05-16T12:12:38.637Z,19.83
2023-05-16T12:13:38.614Z,19.83
2023-05-16T12:14:37.623Z,19.83
2023-05-16T12:15:38.628Z,19.83
2023-05-16T12:16:37.702Z,19.82
2023-05-16T12:17:38.653Z,19.81
2023-05-16T12:18:40.544Z,19.81
2023-05-16T12:19:37.586Z,19.80
2023-05-16T12:20:37.578Z,19.78
2023-05-16T12:21:37.684Z,19.79
2023-05-16T12:22:38.574Z,19.78
2023-05-16T12:23:37.567Z,19.78
2023-05-16T12:24:37.542Z,19.77
2023-05-16T12:25:38.550Z,19.77
2023-05-16T12:26:37.530Z,19.77
2023-05-16T12:27:39.337Z,19.77
2023-05-16T12:28:37.524Z,19.76
2023-05-16T12:29:38.529Z,19.76
2023-05-16T12:30:38.501Z,19.76
2023-05-16T12:31:38.527Z,19.75
2023-05-16T12:32:38.666Z,19.75
2023-05-16T12:33:37.633Z,19.75
2023-05-16T12:34:37.476Z,19.75
2023-05-16T12:35:38.478Z,19.75
2023-05-16T12:36:37.464Z,19.74
2023-05-16T12:37:37.660Z,19.75
2023-05-16T12:38:37.455Z,19.74
2023-05-16T12:39:38.437Z,19.75
2023-05-16T12:40:37.429Z,19.74
2023-05-16T12:41:38.429Z,19.74
2023-05-16T12:42:38.428Z,19.73
2023-05-16T12:43:37.414Z,19.74
2023-05-16T12:44:37.405Z,19.73
2023-05-16T12:45:37.412Z,19.73
2023-05-16T12:46:37.440Z,19.74
2023-05-16T12:47:37.448Z,19.73
2023-05-16T12:48:38.381Z,19.73
2023-05-16T12:49:37.369Z,19.73
2023-05-16T12:50:38.355Z,19.73
2023-05-16T12:51:38.353Z,19.73
2023-05-16T12:52:38.384Z,19.73